Pagrindinis puslapis
METAR-TAF:

METAR-TAF

Oro uostai :

Army Air Corps Middle Wallop

Middle Wallop, Anglija

platuma: 51-09N, ilguma: 001-34W, Aukštis: 91 m

Dabartinis oras

Ataskaita buvo paskelbta 1 valandą ir 2 minutes, ne 23:50 UTC
Vėjas 1 kt iš Šiaurės Rytų
Temperatūra 12°C
Drėgmė 67%
Slėgis 1024 hPa
Matomumas 10 km arba daugiau

METAR: EGVP 092350Z AUTO 04001KT 9999 NCD 12/06 Q1024

Laikas: 01:52 (00:52 UTC)


TAF: trūkstamas

Orai ataskaitas ir orų prognozės (METAR, TAF).

turimą stotys yra geltonos ir raudonos taškus žemėlapyje.

Perkelti pele per norėdami pamatyti stoties vardą.

Tada spustelėkite, norėdami matyti oro stebėjimo ir prognozės.

Norėdami pakeisti žemėlapį: spustelėkite ant žalios mygtukų su juodo kryžiaus žemyn,; žalią mygtuką su brūkšneliu, jei norite nutolinti; arba žalių rodyklių gretimoms žemėlapius.


METAR-TAF: